KATY/ATY METAR and TAF weather

Enter ICAO airport designator
Station Type Date Time Source
KATY METAR 2018/12/10 18:53 UTC NOAA

KATY 101853Z AUTO 20009KT 10SM CLR M02/M05 A3002 RMK AO2 SLP196 T10221050


Station Type Date Time Source
KATY Decoded METAR 2018/12/10 18:53 UTC NOAA

WATERTOWN MUNICIPAL AIRPORT, SD, United States (KATY) 44-54N 097-09W 532M
Dec 10, 2018 - 01:53 PM EST / 2018.12.10 1853 UTC
Wind: from the SSW (200 degrees) at 10 MPH (9 KT):0
Visibility: 10 mile(s):0
Sky conditions: clear
Temperature: 28.0 F (-2.2 C)
Windchill: 19 F (-7 C):1
Dew Point: 23.0 F (-5.0 C)
Relative Humidity: 81%
Pressure (altimeter): 30.02 in. Hg (1016 hPa)
ob: KATY 101853Z AUTO 20009KT 10SM CLR M02/M05 A3002 RMK AO2 SLP196 T10221050
cycle: 19

Station Type Date Time Source
KATY TAF 2018/12/10 18:22 UTC NOAA

TAF KATY 101720Z 1018/1118 22009KT P6SM SCT250
FM110100 VRB04KT P6SM FEW250


Example: see airport list